createdAt,value
2022-09-20T00:03:47.848Z,53.00
2022-09-20T00:07:50.761Z,51.30
2022-09-20T00:11:53.546Z,50.20
2022-09-20T00:15:56.761Z,50.30
2022-09-20T00:19:59.661Z,50.60
2022-09-20T00:24:02.816Z,50.90
2022-09-20T00:28:06.156Z,50.80
2022-09-20T00:32:09.615Z,50.70
2022-09-20T00:36:13.568Z,51.30
2022-09-20T00:40:22.493Z,51.00
2022-09-20T00:45:10.427Z,50.80
2022-09-20T00:49:22.708Z,50.40
2022-09-20T00:53:41.305Z,49.40
2022-09-20T00:57:45.806Z,47.30
2022-09-20T01:01:57.194Z,47.50
2022-09-20T01:06:04.674Z,47.50
2022-09-20T01:10:07.838Z,48.60
2022-09-20T01:14:16.050Z,47.60
2022-09-20T01:18:20.813Z,47.20
2022-09-20T01:22:54.696Z,47.00
2022-09-20T01:27:06.273Z,46.60
2022-09-20T01:31:29.402Z,49.70
2022-09-20T01:35:36.841Z,51.20
2022-09-20T01:39:48.915Z,52.50
2022-09-20T01:44:20.990Z,51.10
2022-09-20T01:48:42.300Z,54.30
2022-09-20T01:53:00.562Z,52.30
2022-09-20T01:57:09.460Z,51.40
2022-09-20T02:01:50.036Z,50.80
2022-09-20T02:06:12.282Z,50.70
2022-09-20T02:10:32.442Z,50.60
2022-09-20T02:14:41.968Z,50.30
2022-09-20T02:19:15.921Z,50.10
2022-09-20T02:23:29.784Z,50.30
2022-09-20T02:27:54.224Z,49.70
2022-09-20T02:32:14.906Z,50.30
2022-09-20T02:36:40.698Z,52.30
2022-09-20T02:41:14.152Z,54.20
2022-09-20T02:45:30.183Z,54.80
2022-09-20T02:50:08.236Z,55.50
2022-09-20T02:54:29.258Z,55.40
2022-09-20T02:58:40.966Z,55.90
2022-09-20T03:03:08.951Z,56.80
2022-09-20T03:07:21.573Z,56.90
2022-09-20T03:11:30.485Z,57.50
2022-09-20T03:15:53.265Z,58.20
2022-09-20T03:20:14.716Z,57.70
2022-09-20T03:24:29.482Z,57.80
2022-09-20T03:29:20.276Z,58.20
2022-09-20T03:33:41.209Z,57.80
2022-09-20T03:37:43.798Z,57.10
2022-09-20T03:41:46.874Z,58.50
2022-09-20T03:45:58.136Z,57.60
2022-09-20T03:50:16.108Z,57.60
2022-09-20T03:54:59.697Z,58.60
2022-09-20T03:59:30.404Z,58.80
2022-09-20T04:03:40.706Z,59.80
2022-09-20T04:08:18.839Z,60.00
2022-09-20T04:12:45.134Z,59.50
2022-09-20T04:17:23.265Z,58.80
2022-09-20T04:21:32.744Z,58.50
2022-09-20T04:25:44.594Z,59.20
2022-09-20T04:30:11.439Z,60.10
2022-09-20T04:34:59.362Z,60.20
2022-09-20T04:39:35.572Z,58.50
2022-09-20T04:43:53.855Z,56.60
2022-09-20T04:48:47.099Z,55.20
2022-09-20T04:53:31.122Z,53.90
2022-09-20T04:57:54.771Z,53.50
2022-09-20T05:02:12.734Z,52.10
2022-09-20T05:06:36.275Z,51.80
2022-09-20T05:11:09.982Z,52.40
2022-09-20T05:15:29.142Z,52.40
2022-09-20T05:20:22.246Z,52.80
2022-09-20T05:25:03.142Z,53.50
2022-09-20T05:29:19.049Z,53.70
2022-09-20T05:34:13.015Z,54.40
2022-09-20T05:38:31.789Z,54.60
2022-09-20T05:42:54.434Z,55.30
2022-09-20T05:46:57.693Z,56.50
2022-09-20T05:51:13.917Z,57.40
2022-09-20T05:56:09.696Z,57.40
2022-09-20T06:00:19.260Z,56.80
2022-09-20T06:04:38.768Z,57.60
2022-09-20T06:08:52.564Z,57.50
2022-09-20T06:22:50.666Z,57.40
2022-09-20T06:26:57.550Z,58.00
2022-09-20T07:02:24.567Z,56.40
2022-09-20T07:06:38.124Z,56.20
2022-09-20T07:23:36.267Z,54.70
2022-09-20T07:27:40.102Z,54.60
2022-09-20T07:31:43.239Z,54.40
2022-09-20T07:35:47.917Z,53.90
2022-09-20T07:39:51.266Z,53.70
2022-09-20T09:28:52.692Z,44.90
2022-09-20T09:33:56.794Z,44.20
2022-09-20T10:05:18.641Z,41.10
2022-09-20T12:28:50.193Z,33.50
2022-09-20T12:32:58.813Z,32.40
2022-09-20T12:37:01.745Z,31.30
2022-09-20T12:41:12.809Z,31.30
2022-09-20T12:45:19.560Z,31.80
2022-09-20T12:49:55.022Z,32.30
2022-09-20T12:54:05.778Z,31.60
2022-09-20T12:58:16.629Z,30.40
2022-09-20T13:02:58.817Z,29.90
2022-09-20T13:43:56.559Z,29.70
2022-09-20T14:46:30.419Z,32.10
2022-09-20T15:34:50.940Z,33.00
2022-09-20T15:38:56.703Z,32.90
2022-09-20T15:43:00.165Z,33.10
2022-09-20T15:47:04.641Z,33.00
2022-09-20T15:51:11.469Z,33.30
2022-09-20T15:55:14.441Z,33.30
2022-09-20T15:59:17.456Z,33.90
2022-09-20T16:03:22.037Z,34.00
2022-09-20T16:07:26.322Z,33.90
2022-09-20T16:11:31.086Z,34.00
2022-09-20T16:15:35.708Z,34.00
2022-09-20T16:19:41.160Z,34.10
2022-09-20T16:23:53.381Z,34.40
2022-09-20T16:27:59.051Z,34.20
2022-09-20T16:32:04.621Z,33.60
2022-09-20T16:40:27.464Z,32.70
2022-09-20T16:48:54.823Z,33.10
2022-09-20T16:53:00.751Z,33.70
2022-09-20T16:57:08.455Z,34.40
2022-09-20T17:01:15.296Z,35.00
2022-09-20T17:05:21.306Z,35.80
2022-09-20T17:09:25.551Z,36.50
2022-09-20T17:13:33.700Z,37.30
2022-09-20T17:17:43.487Z,38.00
2022-09-20T17:26:12.283Z,38.80
2022-09-20T17:30:15.789Z,39.10
2022-09-20T17:34:22.346Z,39.50
2022-09-20T17:38:34.462Z,39.80
2022-09-20T17:42:40.841Z,40.20
2022-09-20T17:46:51.824Z,40.60
2022-09-20T17:50:58.971Z,41.10
2022-09-20T18:30:20.450Z,42.60
2022-09-20T18:34:40.125Z,42.70
2022-09-20T19:01:56.372Z,42.80
2022-09-20T19:15:24.526Z,42.50
2022-09-20T19:38:35.979Z,42.60
2022-09-20T19:47:34.958Z,42.50
2022-09-20T19:51:44.067Z,42.50
2022-09-20T19:56:00.532Z,42.30
2022-09-20T20:00:18.744Z,42.00
2022-09-20T20:04:29.937Z,42.00
2022-09-20T20:09:15.373Z,42.20
2022-09-20T20:14:07.921Z,42.90
2022-09-20T20:18:57.359Z,43.00
2022-09-20T20:23:24.158Z,43.20
2022-09-20T20:27:32.573Z,43.30
2022-09-20T20:35:58.957Z,43.60
2022-09-20T20:40:12.493Z,43.90
2022-09-20T20:48:35.284Z,44.30
2022-09-20T20:52:40.502Z,44.10
2022-09-20T20:56:48.866Z,44.50
2022-09-20T21:00:52.889Z,44.50
2022-09-20T21:05:00.559Z,44.80
2022-09-20T21:09:06.608Z,44.70
2022-09-20T21:13:09.541Z,44.70
2022-09-20T21:17:12.916Z,44.70
2022-09-20T21:21:29.731Z,44.90
2022-09-20T21:25:32.652Z,44.80
2022-09-20T21:29:36.767Z,44.90
2022-09-20T21:33:41.608Z,45.00
2022-09-20T21:37:45.760Z,45.00
2022-09-20T21:41:48.885Z,45.10
2022-09-20T21:45:53.046Z,45.10
2022-09-20T21:49:56.415Z,45.10
2022-09-20T21:54:01.565Z,45.30
2022-09-20T21:58:05.852Z,45.40
2022-09-20T22:02:10.460Z,45.30
2022-09-20T22:06:17.252Z,45.40
2022-09-20T22:10:21.127Z,45.90
2022-09-20T22:14:24.277Z,45.40
2022-09-20T22:18:27.065Z,46.30
2022-09-20T22:22:31.216Z,46.50
2022-09-20T22:26:37.054Z,46.70
2022-09-20T22:30:40.008Z,46.80
2022-09-20T22:34:42.786Z,47.10
2022-09-20T22:38:45.896Z,47.00
2022-09-20T22:42:50.265Z,47.00
2022-09-20T22:46:53.289Z,47.20
2022-09-20T22:51:04.850Z,47.30
2022-09-20T22:55:08.482Z,47.30
2022-09-20T22:59:13.439Z,47.40
2022-09-20T23:03:20.520Z,47.50
2022-09-20T23:07:23.538Z,47.50
2022-09-20T23:11:27.385Z,47.40
2022-09-20T23:15:30.203Z,47.60
2022-09-20T23:19:33.521Z,47.60
2022-09-20T23:23:36.705Z,47.50
2022-09-20T23:27:39.702Z,47.50
2022-09-20T23:31:46.110Z,49.00
2022-09-20T23:35:50.767Z,49.70
2022-09-20T23:39:54.132Z,50.40
2022-09-20T23:43:59.636Z,51.20
2022-09-20T23:48:04.274Z,51.80
2022-09-20T23:52:07.392Z,52.20
2022-09-20T23:56:12.046Z,52.60
